<?xml version="1.0" encoding="UTF-8" standalone="no" ?>
<gpx xmlns="http://www.topografix.com/GPX/1/1" xmlns:xsi="http://www.w3.org/2001/XMLSchema-instance" xsi:schemaLocation="http://www.topografix.com/GPX/1/1 http://www.topografix.com/GPX/1/1/gpx.xsd" version="1.1" creator="VisuGPX - https://www.visugpx.com">
  <metadata>
    <name>Suède</name>
  </metadata>
  <trk>
    <name><![CDATA[Tour d'Europe: étape 090]]></name>
    <trkseg>
      <trkpt lat="65.58345" lon="22.15888">
        <ele>59.467206</ele>
        <time>2020-09-26T08:03:07.224Z</time>
      </trkpt>
      <trkpt lat="65.58279" lon="22.1537">
        <ele>51.295185</ele>
        <time>2020-09-26T08:04:02.256Z</time>
      </trkpt>
      <trkpt lat="65.58168" lon="22.15019">
        <ele>47.311749</ele>
        <time>2020-09-26T08:05:14.231Z</time>
      </trkpt>
      <trkpt lat="65.58076" lon="22.14591">
        <ele>43.521707</ele>
        <time>2020-09-26T08:06:03.236Z</time>
      </trkpt>
      <trkpt lat="65.57987" lon="22.14092">
        <ele>47.43088</ele>
        <time>2020-09-26T08:06:56.247Z</time>
      </trkpt>
      <trkpt lat="65.57939" lon="22.13566">
        <ele>50.19205</ele>
        <time>2020-09-26T08:08:01.235Z</time>
      </trkpt>
      <trkpt lat="65.57971" lon="22.13162">
        <ele>36.001009</ele>
        <time>2020-09-26T08:09:02.246Z</time>
      </trkpt>
      <trkpt lat="65.57912" lon="22.1261">
        <ele>31.233371</ele>
        <time>2020-09-26T08:10:04.262Z</time>
      </trkpt>
      <trkpt lat="65.57857" lon="22.12091">
        <ele>38.569427</ele>
        <time>2020-09-26T08:10:54.247Z</time>
      </trkpt>
      <trkpt lat="65.57806" lon="22.11606">
        <ele>35.502238</ele>
        <time>2020-09-26T08:11:38.232Z</time>
      </trkpt>
      <trkpt lat="65.57737" lon="22.1111">
        <ele>34.06171</ele>
        <time>2020-09-26T08:12:25.237Z</time>
      </trkpt>
      <trkpt lat="65.57699" lon="22.10613">
        <ele>38.075798</ele>
        <time>2020-09-26T08:13:33.232Z</time>
      </trkpt>
      <trkpt lat="65.57687" lon="22.10052">
        <ele>38.29333</ele>
        <time>2020-09-26T08:14:42.237Z</time>
      </trkpt>
      <trkpt lat="65.57656" lon="22.0957">
        <ele>35.784993</ele>
        <time>2020-09-26T08:18:43.227Z</time>
      </trkpt>
      <trkpt lat="65.5746" lon="22.09441">
        <ele>43.13493</ele>
        <time>2020-09-26T08:19:50.244Z</time>
      </trkpt>
      <trkpt lat="65.57246" lon="22.09272">
        <ele>45.846171</ele>
        <time>2020-09-26T08:20:54.239Z</time>
      </trkpt>
      <trkpt lat="65.57065" lon="22.08939">
        <ele>43.239861</ele>
        <time>2020-09-26T08:21:56.249Z</time>
      </trkpt>
      <trkpt lat="65.56856" lon="22.08706">
        <ele>40.808976</ele>
        <time>2020-09-26T08:22:48.261Z</time>
      </trkpt>
      <trkpt lat="65.56616" lon="22.08595">
        <ele>44.501787</ele>
        <time>2020-09-26T08:23:38.247Z</time>
      </trkpt>
      <trkpt lat="65.56377" lon="22.08736">
        <ele>50.859635</ele>
        <time>2020-09-26T08:24:37.250Z</time>
      </trkpt>
      <trkpt lat="65.56182" lon="22.08633">
        <ele>42.135514</ele>
        <time>2020-09-26T08:25:19.248Z</time>
      </trkpt>
      <trkpt lat="65.55975" lon="22.08499">
        <ele>42.238725</ele>
        <time>2020-09-26T08:26:05.270Z</time>
      </trkpt>
      <trkpt lat="65.55757" lon="22.08363">
        <ele>43.129171</ele>
        <time>2020-09-26T08:26:54.238Z</time>
      </trkpt>
      <trkpt lat="65.55522" lon="22.08215">
        <ele>50.817729</ele>
        <time>2020-09-26T08:27:49.243Z</time>
      </trkpt>
      <trkpt lat="65.55279" lon="22.08111">
        <ele>51.239767</ele>
        <time>2020-09-26T08:28:46.231Z</time>
      </trkpt>
      <trkpt lat="65.55047" lon="22.07962">
        <ele>44.105412</ele>
        <time>2020-09-26T08:29:29.276Z</time>
      </trkpt>
      <trkpt lat="65.54815" lon="22.07798">
        <ele>39.669908</ele>
        <time>2020-09-26T08:30:13.245Z</time>
      </trkpt>
      <trkpt lat="65.5456" lon="22.0762">
        <ele>39.109077</ele>
        <time>2020-09-26T08:30:55.244Z</time>
      </trkpt>
      <trkpt lat="65.54306" lon="22.07482">
        <ele>36.03234</ele>
        <time>2020-09-26T08:31:35.259Z</time>
      </trkpt>
      <trkpt lat="65.54042" lon="22.07309">
        <ele>31.96113</ele>
        <time>2020-09-26T08:32:17.262Z</time>
      </trkpt>
      <trkpt lat="65.53792" lon="22.07116">
        <ele>31.13225</ele>
        <time>2020-09-26T08:32:59.237Z</time>
      </trkpt>
      <trkpt lat="65.53575" lon="22.06871">
        <ele>27.513002</ele>
        <time>2020-09-26T08:33:39.236Z</time>
      </trkpt>
      <trkpt lat="65.53396" lon="22.06523">
        <ele>29.416332</ele>
        <time>2020-09-26T08:34:21.283Z</time>
      </trkpt>
      <trkpt lat="65.53249" lon="22.06153">
        <ele>35.63251</ele>
        <time>2020-09-26T08:35:03.236Z</time>
      </trkpt>
      <trkpt lat="65.53107" lon="22.05824">
        <ele>36.231444</ele>
        <time>2020-09-26T08:35:45.261Z</time>
      </trkpt>
      <trkpt lat="65.52924" lon="22.05407">
        <ele>31.897993</ele>
        <time>2020-09-26T08:36:47.254Z</time>
      </trkpt>
      <trkpt lat="65.52777" lon="22.05015">
        <ele>32.45241</ele>
        <time>2020-09-26T08:37:31.237Z</time>
      </trkpt>
      <trkpt lat="65.52643" lon="22.04661">
        <ele>33.689223</ele>
        <time>2020-09-26T08:38:11.243Z</time>
      </trkpt>
      <trkpt lat="65.5248" lon="22.04191">
        <ele>34.344312</ele>
        <time>2020-09-26T08:39:11.239Z</time>
      </trkpt>
      <trkpt lat="65.52422" lon="22.03673">
        <ele>36.421177</ele>
        <time>2020-09-26T08:40:14.233Z</time>
      </trkpt>
      <trkpt lat="65.52375" lon="22.03122">
        <ele>41.502547</ele>
        <time>2020-09-26T08:41:13.236Z</time>
      </trkpt>
      <trkpt lat="65.52312" lon="22.02604">
        <ele>48.464631</ele>
        <time>2020-09-26T08:42:18.271Z</time>
      </trkpt>
      <trkpt lat="65.5223" lon="22.0211">
        <ele>41.186053</ele>
        <time>2020-09-26T08:43:06.259Z</time>
      </trkpt>
      <trkpt lat="65.52103" lon="22.01674">
        <ele>39.098982</ele>
        <time>2020-09-26T08:43:48.259Z</time>
      </trkpt>
      <trkpt lat="65.51942" lon="22.01343">
        <ele>40.932502</ele>
        <time>2020-09-26T08:44:30.267Z</time>
      </trkpt>
      <trkpt lat="65.51888" lon="22.0089">
        <ele>36.889069</ele>
        <time>2020-09-26T08:45:12.251Z</time>
      </trkpt>
      <trkpt lat="65.51931" lon="22.00267">
        <ele>31.091423</ele>
        <time>2020-09-26T08:45:54.283Z</time>
      </trkpt>
      <trkpt lat="65.52007" lon="21.99778">
        <ele>29.18967</ele>
        <time>2020-09-26T08:46:36.235Z</time>
      </trkpt>
      <trkpt lat="65.52111" lon="21.99296">
        <ele>29.910975</ele>
        <time>2020-09-26T08:47:29.243Z</time>
      </trkpt>
      <trkpt lat="65.52281" lon="21.9882">
        <ele>26.416882</ele>
        <time>2020-09-26T08:48:11.237Z</time>
      </trkpt>
      <trkpt lat="65.52385" lon="21.98351">
        <ele>27.178473</ele>
        <time>2020-09-26T08:48:54.232Z</time>
      </trkpt>
      <trkpt lat="65.52498" lon="21.97803">
        <ele>32.130037</ele>
        <time>2020-09-26T08:49:54.264Z</time>
      </trkpt>
      <trkpt lat="65.52497" lon="21.97249">
        <ele>31.515241</ele>
        <time>2020-09-26T08:50:45.242Z</time>
      </trkpt>
      <trkpt lat="65.52469" lon="21.96715">
        <ele>35.836223</ele>
        <time>2020-09-26T08:51:46.291Z</time>
      </trkpt>
      <trkpt lat="65.52446" lon="21.96208">
        <ele>38.868401</ele>
        <time>2020-09-26T08:52:45.273Z</time>
      </trkpt>
      <trkpt lat="65.5242" lon="21.95644">
        <ele>36.718337</ele>
        <time>2020-09-26T08:53:35.235Z</time>
      </trkpt>
      <trkpt lat="65.52423" lon="21.95089">
        <ele>42.297239</ele>
        <time>2020-09-26T08:54:26.251Z</time>
      </trkpt>
      <trkpt lat="65.52521" lon="21.94667">
        <ele>41.891042</ele>
        <time>2020-09-26T08:55:06.257Z</time>
      </trkpt>
      <trkpt lat="65.52647" lon="21.94148">
        <ele>37.282689</ele>
        <time>2020-09-26T08:56:05.276Z</time>
      </trkpt>
      <trkpt lat="65.52769" lon="21.93639">
        <ele>40.04716</ele>
        <time>2020-09-26T08:57:02.267Z</time>
      </trkpt>
      <trkpt lat="65.52891" lon="21.9313">
        <ele>40.980688</ele>
        <time>2020-09-26T08:58:05.286Z</time>
      </trkpt>
      <trkpt lat="65.53" lon="21.92662">
        <ele>44.315319</ele>
        <time>2020-09-26T08:59:09.249Z</time>
      </trkpt>
      <trkpt lat="65.53108" lon="21.92221">
        <ele>46.322849</ele>
        <time>2020-09-26T09:00:09.257Z</time>
      </trkpt>
      <trkpt lat="65.53232" lon="21.91698">
        <ele>42.87337</ele>
        <time>2020-09-26T09:00:58.244Z</time>
      </trkpt>
      <trkpt lat="65.5337" lon="21.9112">
        <ele>33.760378</ele>
        <time>2020-09-26T09:01:40.244Z</time>
      </trkpt>
      <trkpt lat="65.53485" lon="21.90642">
        <ele>31.338082</ele>
        <time>2020-09-26T09:02:20.248Z</time>
      </trkpt>
      <trkpt lat="65.536" lon="21.90153">
        <ele>30.504255</ele>
        <time>2020-09-26T09:03:02.243Z</time>
      </trkpt>
      <trkpt lat="65.53705" lon="21.89717">
        <ele>30.427684</ele>
        <time>2020-09-26T09:03:47.268Z</time>
      </trkpt>
      <trkpt lat="65.5383" lon="21.89229">
        <ele>31.437635</ele>
        <time>2020-09-26T09:04:41.251Z</time>
      </trkpt>
      <trkpt lat="65.53983" lon="21.88839">
        <ele>30.631875</ele>
        <time>2020-09-26T09:05:31.264Z</time>
      </trkpt>
      <trkpt lat="65.54142" lon="21.88481">
        <ele>32.568741</ele>
        <time>2020-09-26T09:06:37.253Z</time>
      </trkpt>
      <trkpt lat="65.54307" lon="21.88119">
        <ele>30.646786</ele>
        <time>2020-09-26T09:07:29.250Z</time>
      </trkpt>
      <trkpt lat="65.54455" lon="21.87676">
        <ele>32.11117</ele>
        <time>2020-09-26T09:08:23.269Z</time>
      </trkpt>
      <trkpt lat="65.54545" lon="21.87128">
        <ele>32.757954</ele>
        <time>2020-09-26T09:09:22.243Z</time>
      </trkpt>
      <trkpt lat="65.5461" lon="21.86612">
        <ele>31.552013</ele>
        <time>2020-09-26T09:10:03.271Z</time>
      </trkpt>
      <trkpt lat="65.54677" lon="21.86033">
        <ele>29.168349</ele>
        <time>2020-09-26T09:10:45.249Z</time>
      </trkpt>
      <trkpt lat="65.54731" lon="21.85584">
        <ele>29.716094</ele>
        <time>2020-09-26T09:11:26.246Z</time>
      </trkpt>
      <trkpt lat="65.54807" lon="21.84993">
        <ele>30.110089</ele>
        <time>2020-09-26T09:12:26.256Z</time>
      </trkpt>
      <trkpt lat="65.54879" lon="21.84585">
        <ele>28.065743</ele>
        <time>2020-09-26T09:13:21.259Z</time>
      </trkpt>
      <trkpt lat="65.54952" lon="21.84183">
        <ele>37.684438</ele>
        <time>2020-09-26T09:14:42.244Z</time>
      </trkpt>
      <trkpt lat="65.55097" lon="21.83777">
        <ele>39.252398</ele>
        <time>2020-09-26T09:15:51.245Z</time>
      </trkpt>
      <trkpt lat="65.55262" lon="21.83391">
        <ele>39.584164</ele>
        <time>2020-09-26T09:16:54.270Z</time>
      </trkpt>
      <trkpt lat="65.55423" lon="21.83025">
        <ele>39.16965</ele>
        <time>2020-09-26T09:17:54.240Z</time>
      </trkpt>
      <trkpt lat="65.55593" lon="21.82717">
        <ele>45.658842</ele>
        <time>2020-09-26T09:19:04.250Z</time>
      </trkpt>
      <trkpt lat="65.55688" lon="21.82428">
        <ele>46.831283</ele>
        <time>2020-09-26T09:20:13.255Z</time>
      </trkpt>
      <trkpt lat="65.55717" lon="21.81873">
        <ele>44.636703</ele>
        <time>2020-09-26T09:21:08.245Z</time>
      </trkpt>
      <trkpt lat="65.55744" lon="21.81346">
        <ele>45.358585</ele>
        <time>2020-09-26T09:21:51.254Z</time>
      </trkpt>
      <trkpt lat="65.55805" lon="21.80829">
        <ele>42.708801</ele>
        <time>2020-09-26T09:22:34.253Z</time>
      </trkpt>
      <trkpt lat="65.55892" lon="21.80344">
        <ele>37.619475</ele>
        <time>2020-09-26T09:23:14.232Z</time>
      </trkpt>
      <trkpt lat="65.56005" lon="21.79884">
        <ele>36.678354</ele>
        <time>2020-09-26T09:23:56.258Z</time>
      </trkpt>
      <trkpt lat="65.56124" lon="21.7947">
        <ele>37.737256</ele>
        <time>2020-09-26T09:24:38.241Z</time>
      </trkpt>
      <trkpt lat="65.56239" lon="21.79063">
        <ele>35.620433</ele>
        <time>2020-09-26T09:25:22.237Z</time>
      </trkpt>
      <trkpt lat="65.56135" lon="21.7859">
        <ele>27.413308</ele>
        <time>2020-09-26T09:26:05.240Z</time>
      </trkpt>
      <trkpt lat="65.56011" lon="21.78167">
        <ele>22.656916</ele>
        <time>2020-09-26T09:26:46.276Z</time>
      </trkpt>
      <trkpt lat="65.5589" lon="21.77756">
        <ele>26.015583</ele>
        <time>2020-09-26T09:27:31.241Z</time>
      </trkpt>
      <trkpt lat="65.55767" lon="21.77302">
        <ele>27.209765</ele>
        <time>2020-09-26T09:28:21.253Z</time>
      </trkpt>
      <trkpt lat="65.5565" lon="21.76848">
        <ele>27.50426</ele>
        <time>2020-09-26T09:29:07.239Z</time>
      </trkpt>
      <trkpt lat="65.55447" lon="21.76755">
        <ele>29.84282</ele>
        <time>2020-09-26T09:29:49.249Z</time>
      </trkpt>
      <trkpt lat="65.55237" lon="21.76591">
        <ele>27.692182</ele>
        <time>2020-09-26T09:30:34.255Z</time>
      </trkpt>
      <trkpt lat="65.55045" lon="21.76525">
        <ele>32.167462</ele>
        <time>2020-09-26T09:31:14.254Z</time>
      </trkpt>
      <trkpt lat="65.54811" lon="21.76543">
        <ele>39.113987</ele>
        <time>2020-09-26T09:32:08.256Z</time>
      </trkpt>
      <trkpt lat="65.54612" lon="21.76292">
        <ele>32.9715</ele>
        <time>2020-09-26T09:32:58.271Z</time>
      </trkpt>
      <trkpt lat="65.54399" lon="21.76305">
        <ele>28.331372</ele>
        <time>2020-09-26T09:33:49.262Z</time>
      </trkpt>
      <trkpt lat="65.54235" lon="21.76665">
        <ele>32.368626</ele>
        <time>2020-09-26T09:34:38.243Z</time>
      </trkpt>
      <trkpt lat="65.54069" lon="21.7704">
        <ele>36.298777</ele>
        <time>2020-09-26T09:35:30.293Z</time>
      </trkpt>
      <trkpt lat="65.53909" lon="21.77397">
        <ele>34.257341</ele>
        <time>2020-09-26T09:36:18.257Z</time>
      </trkpt>
      <trkpt lat="65.53724" lon="21.77815">
        <ele>31.895155</ele>
        <time>2020-09-26T09:37:19.264Z</time>
      </trkpt>
      <trkpt lat="65.5356" lon="21.78181">
        <ele>30.233564</ele>
        <time>2020-09-26T09:38:08.293Z</time>
      </trkpt>
      <trkpt lat="65.534" lon="21.78535">
        <ele>29.978112</ele>
        <time>2020-09-26T09:38:57.252Z</time>
      </trkpt>
      <trkpt lat="65.53216" lon="21.78891">
        <ele>31.88532</ele>
        <time>2020-09-26T09:39:59.303Z</time>
      </trkpt>
      <trkpt lat="65.53102" lon="21.78553">
        <ele>29.094862</ele>
        <time>2020-09-26T09:40:43.279Z</time>
      </trkpt>
      <trkpt lat="65.52948" lon="21.78202">
        <ele>24.133351</ele>
        <time>2020-09-26T09:41:26.257Z</time>
      </trkpt>
      <trkpt lat="65.52782" lon="21.77841">
        <ele>31.223026</ele>
        <time>2020-09-26T09:42:14.250Z</time>
      </trkpt>
      <trkpt lat="65.52628" lon="21.7749">
        <ele>34.351877</ele>
        <time>2020-09-26T10:03:34.895Z</time>
      </trkpt>
      <trkpt lat="65.52528" lon="21.76965">
        <ele>35.334381</ele>
        <time>2020-09-26T10:04:34.879Z</time>
      </trkpt>
      <trkpt lat="65.52464" lon="21.76481">
        <ele>37.449925</ele>
        <time>2020-09-26T10:05:18.896Z</time>
      </trkpt>
      <trkpt lat="65.52404" lon="21.76029">
        <ele>43.159424</ele>
        <time>2020-09-26T10:05:59.876Z</time>
      </trkpt>
      <trkpt lat="65.52342" lon="21.75573">
        <ele>39.160307</ele>
        <time>2020-09-26T10:06:41.878Z</time>
      </trkpt>
      <trkpt lat="65.52276" lon="21.7507">
        <ele>37.195821</ele>
        <time>2020-09-26T10:07:28.885Z</time>
      </trkpt>
      <trkpt lat="65.52197" lon="21.74488">
        <ele>36.864864</ele>
        <time>2020-09-26T10:08:27.874Z</time>
      </trkpt>
      <trkpt lat="65.52136" lon="21.73978">
        <ele>36.899136</ele>
        <time>2020-09-26T10:09:14.866Z</time>
      </trkpt>
      <trkpt lat="65.52098" lon="21.73495">
        <ele>37.182563</ele>
        <time>2020-09-26T10:09:56.869Z</time>
      </trkpt>
      <trkpt lat="65.52061" lon="21.72992">
        <ele>38.95994</ele>
        <time>2020-09-26T10:10:47.872Z</time>
      </trkpt>
      <trkpt lat="65.52015" lon="21.72418">
        <ele>43.777244</ele>
        <time>2020-09-26T10:11:50.916Z</time>
      </trkpt>
      <trkpt lat="65.51967" lon="21.71809">
        <ele>40.596328</ele>
        <time>2020-09-26T10:12:49.897Z</time>
      </trkpt>
      <trkpt lat="65.51929" lon="21.71293">
        <ele>37.666967</ele>
        <time>2020-09-26T10:13:37.899Z</time>
      </trkpt>
      <trkpt lat="65.51881" lon="21.70667">
        <ele>39.300851</ele>
        <time>2020-09-26T10:14:40.913Z</time>
      </trkpt>
      <trkpt lat="65.51886" lon="21.70119">
        <ele>43.025345</ele>
        <time>2020-09-26T10:15:47.884Z</time>
      </trkpt>
      <trkpt lat="65.51906" lon="21.69605">
        <ele>46.411535</ele>
        <time>2020-09-26T10:17:03.923Z</time>
      </trkpt>
      <trkpt lat="65.51953" lon="21.6908">
        <ele>47.126856</ele>
        <time>2020-09-26T10:18:06.872Z</time>
      </trkpt>
      <trkpt lat="65.5205" lon="21.68627">
        <ele>44.836781</ele>
        <time>2020-09-26T10:19:04.887Z</time>
      </trkpt>
      <trkpt lat="65.52157" lon="21.68125">
        <ele>44.749472</ele>
        <time>2020-09-26T10:20:07.918Z</time>
      </trkpt>
      <trkpt lat="65.52257" lon="21.67668">
        <ele>45.705508</ele>
        <time>2020-09-26T10:21:12.866Z</time>
      </trkpt>
      <trkpt lat="65.5236" lon="21.672">
        <ele>48.600029</ele>
        <time>2020-09-26T10:22:12.872Z</time>
      </trkpt>
      <trkpt lat="65.52471" lon="21.66688">
        <ele>47.544874</ele>
        <time>2020-09-26T10:23:15.873Z</time>
      </trkpt>
      <trkpt lat="65.52578" lon="21.66192">
        <ele>48.513224</ele>
        <time>2020-09-26T10:24:20.899Z</time>
      </trkpt>
      <trkpt lat="65.52671" lon="21.6569">
        <ele>55.03114</ele>
        <time>2020-09-26T10:25:20.883Z</time>
      </trkpt>
      <trkpt lat="65.52669" lon="21.65142">
        <ele>56.286258</ele>
        <time>2020-09-26T10:28:15.873Z</time>
      </trkpt>
      <trkpt lat="65.52625" lon="21.64593">
        <ele>50.990494</ele>
        <time>2020-09-26T10:28:59.886Z</time>
      </trkpt>
      <trkpt lat="65.52556" lon="21.64067">
        <ele>40.298885</ele>
        <time>2020-09-26T10:29:39.906Z</time>
      </trkpt>
      <trkpt lat="65.52425" lon="21.63678">
        <ele>41.274945</ele>
        <time>2020-09-26T10:30:24.877Z</time>
      </trkpt>
      <trkpt lat="65.52248" lon="21.63418">
        <ele>44.086272</ele>
        <time>2020-09-26T10:31:06.875Z</time>
      </trkpt>
      <trkpt lat="65.52069" lon="21.63132">
        <ele>43.126158</ele>
        <time>2020-09-26T10:31:48.892Z</time>
      </trkpt>
      <trkpt lat="65.51874" lon="21.62753">
        <ele>42.217562</ele>
        <time>2020-09-26T10:32:47.874Z</time>
      </trkpt>
      <trkpt lat="65.5171" lon="21.6231">
        <ele>38.357047</ele>
        <time>2020-09-26T10:33:27.901Z</time>
      </trkpt>
      <trkpt lat="65.51561" lon="21.61836">
        <ele>39.872388</ele>
        <time>2020-09-26T10:34:28.880Z</time>
      </trkpt>
      <trkpt lat="65.51513" lon="21.61308">
        <ele>45.724289</ele>
        <time>2020-09-26T10:35:31.876Z</time>
      </trkpt>
      <trkpt lat="65.51495" lon="21.60813">
        <ele>48.307087</ele>
        <time>2020-09-26T10:36:37.884Z</time>
      </trkpt>
      <trkpt lat="65.51471" lon="21.60282">
        <ele>52.959107</ele>
        <time>2020-09-26T10:37:55.885Z</time>
      </trkpt>
      <trkpt lat="65.51398" lon="21.59746">
        <ele>48.31104</ele>
        <time>2020-09-26T10:38:43.887Z</time>
      </trkpt>
      <trkpt lat="65.51249" lon="21.59103">
        <ele>35.470759</ele>
        <time>2020-09-26T10:39:21.879Z</time>
      </trkpt>
      <trkpt lat="65.51134" lon="21.58602">
        <ele>34.882135</ele>
        <time>2020-09-26T10:40:03.916Z</time>
      </trkpt>
      <trkpt lat="65.5096" lon="21.58538">
        <ele>38.458437</ele>
        <time>2020-09-26T10:40:53.876Z</time>
      </trkpt>
      <trkpt lat="65.50751" lon="21.58792">
        <ele>37.031688</ele>
        <time>2020-09-26T10:41:33.899Z</time>
      </trkpt>
      <trkpt lat="65.50553" lon="21.59052">
        <ele>36.823032</ele>
        <time>2020-09-26T10:42:16.877Z</time>
      </trkpt>
      <trkpt lat="65.50343" lon="21.59245">
        <ele>37.410839</ele>
        <time>2020-09-26T10:43:04.914Z</time>
      </trkpt>
      <trkpt lat="65.50113" lon="21.59342">
        <ele>32.933389</ele>
        <time>2020-09-26T10:43:44.886Z</time>
      </trkpt>
      <trkpt lat="65.49893" lon="21.59432">
        <ele>31.888014</ele>
        <time>2020-09-26T10:44:26.897Z</time>
      </trkpt>
      <trkpt lat="65.49712" lon="21.5968">
        <ele>40.622326</ele>
        <time>2020-09-26T10:45:14.878Z</time>
      </trkpt>
      <trkpt lat="65.49556" lon="21.60087">
        <ele>44.113748</ele>
        <time>2020-09-26T10:46:15.899Z</time>
      </trkpt>
      <trkpt lat="65.4935" lon="21.60421">
        <ele>38.942144</ele>
        <time>2020-09-26T10:46:57.876Z</time>
      </trkpt>
      <trkpt lat="65.49157" lon="21.6062">
        <ele>37.205794</ele>
        <time>2020-09-26T10:47:43.905Z</time>
      </trkpt>
      <trkpt lat="65.48937" lon="21.60695">
        <ele>34.101052</ele>
        <time>2020-09-26T10:48:25.881Z</time>
      </trkpt>
      <trkpt lat="65.48823" lon="21.61146">
        <ele>33.898968</ele>
        <time>2020-09-26T10:49:08.907Z</time>
      </trkpt>
      <trkpt lat="65.48714" lon="21.61567">
        <ele>33.326383</ele>
        <time>2020-09-26T10:49:49.906Z</time>
      </trkpt>
      <trkpt lat="65.48734" lon="21.62049">
        <ele>33.369921</ele>
        <time>2020-09-26T10:50:35.902Z</time>
      </trkpt>
      <trkpt lat="65.48707" lon="21.6255">
        <ele>38.835924</ele>
        <time>2020-09-26T10:51:31.905Z</time>
      </trkpt>
      <trkpt lat="65.4856" lon="21.62921">
        <ele>39.677775</ele>
        <time>2020-09-26T10:52:11.924Z</time>
      </trkpt>
      <trkpt lat="65.4842" lon="21.63318">
        <ele>36.547421</ele>
        <time>2020-09-26T10:52:55.883Z</time>
      </trkpt>
      <trkpt lat="65.4827" lon="21.63718">
        <ele>42.384239</ele>
        <time>2020-09-26T10:53:45.903Z</time>
      </trkpt>
      <trkpt lat="65.48144" lon="21.64118">
        <ele>43.494781</ele>
        <time>2020-09-26T10:54:44.917Z</time>
      </trkpt>
      <trkpt lat="65.47961" lon="21.64393">
        <ele>42.958302</ele>
        <time>2020-09-26T10:55:26.889Z</time>
      </trkpt>
      <trkpt lat="65.47812" lon="21.64756">
        <ele>46.019193</ele>
        <time>2020-09-26T10:56:26.875Z</time>
      </trkpt>
      <trkpt lat="65.47623" lon="21.65088">
        <ele>45.70482</ele>
        <time>2020-09-26T10:57:16.884Z</time>
      </trkpt>
      <trkpt lat="65.47479" lon="21.65506">
        <ele>47.423485</ele>
        <time>2020-09-26T10:58:11.895Z</time>
      </trkpt>
      <trkpt lat="65.47307" lon="21.65822">
        <ele>50.879319</ele>
        <time>2020-09-26T10:59:20.908Z</time>
      </trkpt>
      <trkpt lat="65.47105" lon="21.66092">
        <ele>49.083606</ele>
        <time>2020-09-26T11:00:15.882Z</time>
      </trkpt>
      <trkpt lat="65.46913" lon="21.6636">
        <ele>49.875947</ele>
        <time>2020-09-26T11:01:01.899Z</time>
      </trkpt>
      <trkpt lat="65.46686" lon="21.66449">
        <ele>47.837562</ele>
        <time>2020-09-26T11:01:45.887Z</time>
      </trkpt>
      <trkpt lat="65.46492" lon="21.66753">
        <ele>51.088259</ele>
        <time>2020-09-26T11:02:30.891Z</time>
      </trkpt>
      <trkpt lat="65.46275" lon="21.67042">
        <ele>50.23483</ele>
        <time>2020-09-26T11:03:20.896Z</time>
      </trkpt>
      <trkpt lat="65.46051" lon="21.66979">
        <ele>51.49125</ele>
        <time>2020-09-26T11:04:04.910Z</time>
      </trkpt>
      <trkpt lat="65.45791" lon="21.6698">
        <ele>45.3037</ele>
        <time>2020-09-26T11:04:46.882Z</time>
      </trkpt>
      <trkpt lat="65.45566" lon="21.67074">
        <ele>43.53492</ele>
        <time>2020-09-26T11:05:28.879Z</time>
      </trkpt>
      <trkpt lat="65.45317" lon="21.67239">
        <ele>41.586287</ele>
        <time>2020-09-26T11:06:08.892Z</time>
      </trkpt>
      <trkpt lat="65.45073" lon="21.67365">
        <ele>43.770736</ele>
        <time>2020-09-26T11:07:00.925Z</time>
      </trkpt>
      <trkpt lat="65.44869" lon="21.67616">
        <ele>47.995135</ele>
        <time>2020-09-26T11:08:09.901Z</time>
      </trkpt>
      <trkpt lat="65.44667" lon="21.6786">
        <ele>49.231737</ele>
        <time>2020-09-26T11:09:01.938Z</time>
      </trkpt>
      <trkpt lat="65.44453" lon="21.68122">
        <ele>45.453933</ele>
        <time>2020-09-26T11:09:43.875Z</time>
      </trkpt>
      <trkpt lat="65.4423" lon="21.68339">
        <ele>44.018001</ele>
        <time>2020-09-26T11:10:25.912Z</time>
      </trkpt>
      <trkpt lat="65.44042" lon="21.68571">
        <ele>43.423648</ele>
        <time>2020-09-26T11:11:05.903Z</time>
      </trkpt>
      <trkpt lat="65.4384" lon="21.69037">
        <ele>36.157943</ele>
        <time>2020-09-26T11:11:47.915Z</time>
      </trkpt>
      <trkpt lat="65.43589" lon="21.69031">
        <ele>26.226735</ele>
        <time>2020-09-26T11:12:27.891Z</time>
      </trkpt>
      <trkpt lat="65.43345" lon="21.68965">
        <ele>24.394794</ele>
        <time>2020-09-26T11:13:09.889Z</time>
      </trkpt>
      <trkpt lat="65.43131" lon="21.68885">
        <ele>26.602142</ele>
        <time>2020-09-26T11:13:52.893Z</time>
      </trkpt>
      <trkpt lat="65.42899" lon="21.68782">
        <ele>28.222002</ele>
        <time>2020-09-26T11:14:50.877Z</time>
      </trkpt>
      <trkpt lat="65.4281" lon="21.68295">
        <ele>30.820925</ele>
        <time>2020-09-26T11:15:48.937Z</time>
      </trkpt>
      <trkpt lat="65.42744" lon="21.67769">
        <ele>27.787105</ele>
        <time>2020-09-26T11:16:39.907Z</time>
      </trkpt>
      <trkpt lat="65.42711" lon="21.673">
        <ele>25.100231</ele>
        <time>2020-09-26T11:17:19.931Z</time>
      </trkpt>
      <trkpt lat="65.42735" lon="21.66781">
        <ele>28.61232</ele>
        <time>2020-09-26T11:18:13.898Z</time>
      </trkpt>
      <trkpt lat="65.42821" lon="21.66278">
        <ele>34.471013</ele>
        <time>2020-09-26T11:19:26.895Z</time>
      </trkpt>
      <trkpt lat="65.42938" lon="21.65837">
        <ele>38.909845</ele>
        <time>2020-09-26T11:20:25.894Z</time>
      </trkpt>
      <trkpt lat="65.43065" lon="21.6542">
        <ele>38.821578</ele>
        <time>2020-09-26T11:21:09.893Z</time>
      </trkpt>
      <trkpt lat="65.43153" lon="21.64935">
        <ele>36.996494</ele>
        <time>2020-09-26T11:22:12.928Z</time>
      </trkpt>
      <trkpt lat="65.43166" lon="21.64263">
        <ele>30.467168</ele>
        <time>2020-09-26T11:22:57.912Z</time>
      </trkpt>
      <trkpt lat="65.43204" lon="21.63713">
        <ele>31.33519</ele>
        <time>2020-09-26T11:23:51.895Z</time>
      </trkpt>
      <trkpt lat="65.43387" lon="21.63481">
        <ele>34.979857</ele>
        <time>2020-09-26T11:25:14.893Z</time>
      </trkpt>
      <trkpt lat="65.43306" lon="21.62942">
        <ele>36.980431</ele>
        <time>2020-09-26T11:26:14.898Z</time>
      </trkpt>
      <trkpt lat="65.43234" lon="21.62436">
        <ele>44.68748</ele>
        <time>2020-09-26T11:27:28.938Z</time>
      </trkpt>
      <trkpt lat="65.4318" lon="21.61948">
        <ele>55.261133</ele>
        <time>2020-09-26T11:28:48.903Z</time>
      </trkpt>
      <trkpt lat="65.4314" lon="21.61444">
        <ele>61.897724</ele>
        <time>2020-09-26T11:30:12.924Z</time>
      </trkpt>
      <trkpt lat="65.43117" lon="21.60953">
        <ele>60.84382</ele>
        <time>2020-09-26T11:31:17.914Z</time>
      </trkpt>
      <trkpt lat="65.43107" lon="21.6043">
        <ele>57.520099</ele>
        <time>2020-09-26T11:32:03.918Z</time>
      </trkpt>
      <trkpt lat="65.43094" lon="21.59666">
        <ele>45.378859</ele>
        <time>2020-09-26T11:32:45.914Z</time>
      </trkpt>
      <trkpt lat="65.43035" lon="21.58864">
        <ele>35.003587</ele>
        <time>2020-09-26T11:33:27.915Z</time>
      </trkpt>
      <trkpt lat="65.42952" lon="21.5825">
        <ele>29.899348</ele>
        <time>2020-09-26T11:34:07.926Z</time>
      </trkpt>
      <trkpt lat="65.42851" lon="21.57658">
        <ele>29.102377</ele>
        <time>2020-09-26T11:34:49.926Z</time>
      </trkpt>
      <trkpt lat="65.42796" lon="21.57066">
        <ele>27.376367</ele>
        <time>2020-09-26T11:35:31.911Z</time>
      </trkpt>
      <trkpt lat="65.4284" lon="21.56608">
        <ele>31.546294</ele>
        <time>2020-09-26T11:36:12.906Z</time>
      </trkpt>
      <trkpt lat="65.42895" lon="21.56067">
        <ele>37.643986</ele>
        <time>2020-09-26T11:37:17.915Z</time>
      </trkpt>
      <trkpt lat="65.42944" lon="21.55524">
        <ele>39.988903</ele>
        <time>2020-09-26T11:38:22.908Z</time>
      </trkpt>
      <trkpt lat="65.42999" lon="21.55028">
        <ele>36.241754</ele>
        <time>2020-09-26T11:39:02.900Z</time>
      </trkpt>
      <trkpt lat="65.43074" lon="21.54434">
        <ele>28.018489</ele>
        <time>2020-09-26T11:39:44.908Z</time>
      </trkpt>
      <trkpt lat="65.42982" lon="21.53957">
        <ele>29.224253</ele>
        <time>2020-09-26T11:40:38.928Z</time>
      </trkpt>
      <trkpt lat="65.42861" lon="21.5354">
        <ele>34.751662</ele>
        <time>2020-09-26T11:41:56.889Z</time>
      </trkpt>
      <trkpt lat="65.42678" lon="21.53157">
        <ele>30.470957</ele>
        <time>2020-09-26T11:42:45.909Z</time>
      </trkpt>
      <trkpt lat="65.42484" lon="21.52807">
        <ele>26.215009</ele>
        <time>2020-09-26T11:43:25.917Z</time>
      </trkpt>
      <trkpt lat="65.4227" lon="21.52616">
        <ele>29.037053</ele>
        <time>2020-09-26T11:44:21.912Z</time>
      </trkpt>
      <trkpt lat="65.42017" lon="21.52508">
        <ele>24.850167</ele>
        <time>2020-09-26T11:45:03.911Z</time>
      </trkpt>
      <trkpt lat="65.41824" lon="21.52328">
        <ele>28.490572</ele>
        <time>2020-09-26T11:45:51.913Z</time>
      </trkpt>
      <trkpt lat="65.418" lon="21.51959">
        <ele>29.458993</ele>
        <time>2020-09-26T11:46:50.893Z</time>
      </trkpt>
      <trkpt lat="65.41944" lon="21.51542">
        <ele>28.093611</ele>
        <time>2020-09-26T11:47:35.917Z</time>
      </trkpt>
      <trkpt lat="65.42089" lon="21.51178">
        <ele>32.085342</ele>
        <time>2020-09-26T11:48:35.962Z</time>
      </trkpt>
      <trkpt lat="65.42275" lon="21.50831">
        <ele>30.106603</ele>
        <time>2020-09-26T11:49:26.894Z</time>
      </trkpt>
      <trkpt lat="65.42438" lon="21.50448">
        <ele>31.522842</ele>
        <time>2020-09-26T11:50:29.908Z</time>
      </trkpt>
      <trkpt lat="65.42284" lon="21.50083">
        <ele>29.356513</ele>
        <time>2020-09-26T11:51:11.897Z</time>
      </trkpt>
      <trkpt lat="65.42227" lon="21.49576">
        <ele>31.07779</ele>
        <time>2020-09-26T11:52:10.909Z</time>
      </trkpt>
      <trkpt lat="65.42126" lon="21.49112">
        <ele>34.474809</ele>
        <time>2020-09-26T11:53:22.961Z</time>
      </trkpt>
      <trkpt lat="65.41969" lon="21.48614">
        <ele>27.811432</ele>
        <time>2020-09-26T11:54:01.896Z</time>
      </trkpt>
      <trkpt lat="65.41849" lon="21.48163">
        <ele>25.825463</ele>
        <time>2020-09-26T11:54:43.908Z</time>
      </trkpt>
      <trkpt lat="65.41708" lon="21.4776">
        <ele>29.916845</ele>
        <time>2020-09-26T11:55:37.905Z</time>
      </trkpt>
      <trkpt lat="65.41575" lon="21.47375">
        <ele>34.413338</ele>
        <time>2020-09-26T11:56:51.903Z</time>
      </trkpt>
      <trkpt lat="65.41371" lon="21.4687">
        <ele>24.9956</ele>
        <time>2020-09-26T11:57:31.904Z</time>
      </trkpt>
      <trkpt lat="65.41179" lon="21.46574">
        <ele>24.512127</ele>
        <time>2020-09-26T11:58:11.912Z</time>
      </trkpt>
      <trkpt lat="65.40976" lon="21.46293">
        <ele>24.622005</ele>
        <time>2020-09-26T11:59:00.898Z</time>
      </trkpt>
      <trkpt lat="65.40751" lon="21.46156">
        <ele>29.093972</ele>
        <time>2020-09-26T11:59:55.938Z</time>
      </trkpt>
      <trkpt lat="65.4053" lon="21.46196">
        <ele>31.269255</ele>
        <time>2020-09-26T12:00:49.896Z</time>
      </trkpt>
      <trkpt lat="65.40295" lon="21.46011">
        <ele>32.368715</ele>
        <time>2020-09-26T12:01:52.909Z</time>
      </trkpt>
      <trkpt lat="65.40087" lon="21.45778">
        <ele>32.870334</ele>
        <time>2020-09-26T12:02:43.934Z</time>
      </trkpt>
      <trkpt lat="65.39872" lon="21.45676">
        <ele>35.324634</ele>
        <time>2020-09-26T12:03:24.901Z</time>
      </trkpt>
      <trkpt lat="65.39661" lon="21.45557">
        <ele>38.3444</ele>
        <time>2020-09-26T12:04:32.941Z</time>
      </trkpt>
      <trkpt lat="65.39397" lon="21.45355">
        <ele>30.364314</ele>
        <time>2020-09-26T12:05:16.956Z</time>
      </trkpt>
      <trkpt lat="65.39159" lon="21.44963">
        <ele>25.774214</ele>
        <time>2020-09-26T12:05:56.914Z</time>
      </trkpt>
      <trkpt lat="65.38957" lon="21.44633">
        <ele>26.071986</ele>
        <time>2020-09-26T12:06:38.914Z</time>
      </trkpt>
      <trkpt lat="65.38767" lon="21.44321">
        <ele>25.874792</ele>
        <time>2020-09-26T12:07:20.896Z</time>
      </trkpt>
      <trkpt lat="65.38597" lon="21.44045">
        <ele>27.966356</ele>
        <time>2020-09-26T12:08:00.951Z</time>
      </trkpt>
      <trkpt lat="65.38413" lon="21.43775">
        <ele>31.307985</ele>
        <time>2020-09-26T12:08:46.908Z</time>
      </trkpt>
      <trkpt lat="65.38221" lon="21.43512">
        <ele>40.855434</ele>
        <time>2020-09-26T12:09:49.943Z</time>
      </trkpt>
      <trkpt lat="65.38038" lon="21.43278">
        <ele>42.339513</ele>
        <time>2020-09-26T12:10:49.956Z</time>
      </trkpt>
      <trkpt lat="65.3783" lon="21.43088">
        <ele>36.401086</ele>
        <time>2020-09-26T12:11:38.910Z</time>
      </trkpt>
      <trkpt lat="65.37636" lon="21.4298">
        <ele>33.272242</ele>
        <time>2020-09-26T12:12:18.920Z</time>
      </trkpt>
      <trkpt lat="65.37432" lon="21.42734">
        <ele>32.22237</ele>
        <time>2020-09-26T12:13:00.916Z</time>
      </trkpt>
      <trkpt lat="65.37265" lon="21.42751">
        <ele>38.19791</ele>
        <time>2020-09-26T12:14:05.919Z</time>
      </trkpt>
      <trkpt lat="65.37197" lon="21.43113">
        <ele>37.609045</ele>
        <time>2020-09-26T12:14:54.904Z</time>
      </trkpt>
      <trkpt lat="65.36932" lon="21.43056">
        <ele>31.193348</ele>
        <time>2020-09-26T12:15:36.908Z</time>
      </trkpt>
      <trkpt lat="65.3679" lon="21.42873">
        <ele>26.089388</ele>
        <time>2020-09-26T12:16:27.909Z</time>
      </trkpt>
      <trkpt lat="65.36595" lon="21.42732">
        <ele>28.423297</ele>
        <time>2020-09-26T12:17:08.897Z</time>
      </trkpt>
      <trkpt lat="65.36391" lon="21.42494">
        <ele>31.768013</ele>
        <time>2020-09-26T12:18:20.935Z</time>
      </trkpt>
      <trkpt lat="65.36195" lon="21.42268">
        <ele>29.365051</ele>
        <time>2020-09-26T12:19:23.935Z</time>
      </trkpt>
      <trkpt lat="65.35965" lon="21.42028">
        <ele>24.938725</ele>
        <time>2020-09-26T12:20:03.911Z</time>
      </trkpt>
      <trkpt lat="65.35751" lon="21.4211">
        <ele>28.86687</ele>
        <time>2020-09-26T12:20:54.913Z</time>
      </trkpt>
      <trkpt lat="65.35599" lon="21.42507">
        <ele>32.017006</ele>
        <time>2020-09-26T12:22:07.921Z</time>
      </trkpt>
      <trkpt lat="65.35472" lon="21.42925">
        <ele>30.931874</ele>
        <time>2020-09-26T12:23:07.944Z</time>
      </trkpt>
      <trkpt lat="65.35277" lon="21.43217">
        <ele>28.262422</ele>
        <time>2020-09-26T12:23:57.934Z</time>
      </trkpt>
      <trkpt lat="65.35109" lon="21.43564">
        <ele>33.432872</ele>
        <time>2020-09-26T12:25:06.914Z</time>
      </trkpt>
      <trkpt lat="65.35076" lon="21.44073">
        <ele>35.53788</ele>
        <time>2020-09-26T12:26:09.914Z</time>
      </trkpt>
      <trkpt lat="65.34964" lon="21.44616">
        <ele>30.237814</ele>
        <time>2020-09-26T12:26:51.916Z</time>
      </trkpt>
      <trkpt lat="65.34822" lon="21.45027">
        <ele>37.349983</ele>
        <time>2020-09-26T12:27:38.928Z</time>
      </trkpt>
      <trkpt lat="65.34658" lon="21.45385">
        <ele>50.19947</ele>
        <time>2020-09-26T12:28:48.935Z</time>
      </trkpt>
      <trkpt lat="65.34489" lon="21.45742">
        <ele>47.036575</ele>
        <time>2020-09-26T12:29:53.911Z</time>
      </trkpt>
      <trkpt lat="65.34343" lon="21.46145">
        <ele>42.426071</ele>
        <time>2020-09-26T12:30:42.926Z</time>
      </trkpt>
      <trkpt lat="65.34178" lon="21.46592">
        <ele>32.495695</ele>
        <time>2020-09-26T12:31:28.928Z</time>
      </trkpt>
      <trkpt lat="65.34057" lon="21.47039">
        <ele>32.958917</ele>
        <time>2020-09-26T12:32:31.905Z</time>
      </trkpt>
      <trkpt lat="65.34087" lon="21.47473">
        <ele>24.956106</ele>
        <time>2020-09-26T12:33:16.909Z</time>
      </trkpt>
      <trkpt lat="65.33905" lon="21.47754">
        <ele>26.36599</ele>
        <time>2020-09-26T12:34:15.977Z</time>
      </trkpt>
      <trkpt lat="65.33714" lon="21.48017">
        <ele>27.24814</ele>
        <time>2020-09-26T12:35:06.923Z</time>
      </trkpt>
      <trkpt lat="65.33621" lon="21.48478">
        <ele>26.787977</ele>
        <time>2020-09-26T12:35:59.938Z</time>
      </trkpt>
      <trkpt lat="65.33493" lon="21.48911">
        <ele>28.098664</ele>
        <time>2020-09-26T12:36:57.907Z</time>
      </trkpt>
      <trkpt lat="65.3335" lon="21.49314">
        <ele>24.646293</ele>
        <time>2020-09-26T12:37:45.958Z</time>
      </trkpt>
      <trkpt lat="65.33196" lon="21.49626">
        <ele>25.677767</ele>
        <time>2020-09-26T12:38:27.925Z</time>
      </trkpt>
      <trkpt lat="65.33003" lon="21.49803">
        <ele>30.160588</ele>
        <time>2020-09-26T12:39:11.901Z</time>
      </trkpt>
      <trkpt lat="65.32816" lon="21.49609">
        <ele>32.453995</ele>
        <time>2020-09-26T12:39:55.904Z</time>
      </trkpt>
      <trkpt lat="65.32603" lon="21.49545">
        <ele>31.732193</ele>
        <time>2020-09-26T12:40:45.913Z</time>
      </trkpt>
      <trkpt lat="65.32414" lon="21.49353">
        <ele>32.296865</ele>
        <time>2020-09-26T12:41:30.913Z</time>
      </trkpt>
      <trkpt lat="65.32273" lon="21.48998">
        <ele>29.076274</ele>
        <time>2020-09-26T12:42:16.921Z</time>
      </trkpt>
      <trkpt lat="65.32074" lon="21.4863">
        <ele>32.87477</ele>
        <time>2020-09-26T12:43:18.954Z</time>
      </trkpt>
      <trkpt lat="65.31904" lon="21.48314">
        <ele>36.197744</ele>
        <time>2020-09-26T12:44:28.937Z</time>
      </trkpt>
      <trkpt lat="65.31736" lon="21.48027">
        <ele>40.423442</ele>
        <time>2020-09-26T12:45:46.915Z</time>
      </trkpt>
      <trkpt lat="65.31718" lon="21.4763">
        <ele>55.258582</ele>
        <time>2020-09-26T12:49:03.926Z</time>
      </trkpt>
      <trkpt lat="65.31724" lon="21.47869">
        <ele>121.972168</ele>
        <time>2020-09-26T13:09:43.949Z</time>
      </trkpt>
    </trkseg>
  </trk>
</gpx>